sensor_id;sensor_type;location;lat;lon;timestamp;P1;durP1;ratioP1;P2;durP2;ratioP2
46355;SDS011;32066;49.474;11.106;2023-03-24T00:00:44;5.78;;;3.40;;
46355;SDS011;32066;49.474;11.106;2023-03-24T00:03:13;7.65;;;3.13;;
46355;SDS011;32066;49.474;11.106;2023-03-24T00:05:43;5.75;;;2.95;;
46355;SDS011;32066;49.474;11.106;2023-03-24T00:08:17;7.35;;;3.08;;
46355;SDS011;32066;49.474;11.106;2023-03-24T00:10:46;5.82;;;3.15;;
46355;SDS011;32066;49.474;11.106;2023-03-24T00:13:17;8.10;;;3.55;;
46355;SDS011;32066;49.474;11.106;2023-03-24T00:15:46;9.23;;;2.95;;
46355;SDS011;32066;49.474;11.106;2023-03-24T00:18:15;9.90;;;3.80;;
46355;SDS011;32066;49.474;11.106;2023-03-24T00:20:50;6.78;;;3.50;;
46355;SDS011;32066;49.474;11.106;2023-03-24T00:23:26;6.75;;;3.17;;
46355;SDS011;32066;49.474;11.106;2023-03-24T00:25:58;6.40;;;3.13;;
46355;SDS011;32066;49.474;11.106;2023-03-24T00:28:29;6.20;;;3.30;;
46355;SDS011;32066;49.474;11.106;2023-03-24T00:30:58;7.97;;;3.75;;
46355;SDS011;32066;49.474;11.106;2023-03-24T00:33:29;6.68;;;3.20;;
46355;SDS011;32066;49.474;11.106;2023-03-24T00:35:59;6.18;;;3.03;;
46355;SDS011;32066;49.474;11.106;2023-03-24T00:38:32;5.90;;;3.20;;
46355;SDS011;32066;49.474;11.106;2023-03-24T00:41:01;8.45;;;3.70;;
46355;SDS011;32066;49.474;11.106;2023-03-24T00:43:31;8.23;;;3.35;;
46355;SDS011;32066;49.474;11.106;2023-03-24T00:46:04;6.05;;;3.10;;
46355;SDS011;32066;49.474;11.106;2023-03-24T00:48:35;6.13;;;3.60;;
46355;SDS011;32066;49.474;11.106;2023-03-24T00:51:06;8.93;;;3.72;;
46355;SDS011;32066;49.474;11.106;2023-03-24T00:53:38;5.65;;;3.40;;
46355;SDS011;32066;49.474;11.106;2023-03-24T00:56:07;6.38;;;3.40;;
46355;SDS011;32066;49.474;11.106;2023-03-24T00:58:36;6.68;;;3.40;;
46355;SDS011;32066;49.474;11.106;2023-03-24T01:01:05;6.22;;;3.30;;
46355;SDS011;32066;49.474;11.106;2023-03-24T01:03:34;7.40;;;3.42;;
46355;SDS011;32066;49.474;11.106;2023-03-24T01:06:12;7.43;;;3.25;;
46355;SDS011;32066;49.474;11.106;2023-03-24T01:08:44;7.53;;;3.90;;
46355;SDS011;32066;49.474;11.106;2023-03-24T01:11:14;5.72;;;2.88;;
46355;SDS011;32066;49.474;11.106;2023-03-24T01:13:43;7.70;;;3.40;;
46355;SDS011;32066;49.474;11.106;2023-03-24T01:16:12;6.63;;;3.72;;
46355;SDS011;32066;49.474;11.106;2023-03-24T01:18:41;5.72;;;3.20;;
46355;SDS011;32066;49.474;11.106;2023-03-24T01:21:11;6.40;;;3.30;;
46355;SDS011;32066;49.474;11.106;2023-03-24T01:23:40;6.93;;;3.25;;
46355;SDS011;32066;49.474;11.106;2023-03-24T01:26:11;5.47;;;2.67;;
46355;SDS011;32066;49.474;11.106;2023-03-24T01:28:40;6.45;;;3.28;;
46355;SDS011;32066;49.474;11.106;2023-03-24T01:31:09;5.47;;;3.15;;
46355;SDS011;32066;49.474;11.106;2023-03-24T01:33:38;6.10;;;3.50;;
46355;SDS011;32066;49.474;11.106;2023-03-24T01:36:08;5.95;;;3.00;;
46355;SDS011;32066;49.474;11.106;2023-03-24T01:38:37;8.07;;;3.20;;
46355;SDS011;32066;49.474;11.106;2023-03-24T01:41:06;5.88;;;3.00;;
46355;SDS011;32066;49.474;11.106;2023-03-24T01:43:38;8.50;;;3.97;;
46355;SDS011;32066;49.474;11.106;2023-03-24T01:46:11;7.65;;;3.28;;
46355;SDS011;32066;49.474;11.106;2023-03-24T01:48:44;5.68;;;3.00;;
46355;SDS011;32066;49.474;11.106;2023-03-24T01:51:18;5.30;;;2.80;;
46355;SDS011;32066;49.474;11.106;2023-03-24T01:53:51;7.07;;;3.08;;
46355;SDS011;32066;49.474;11.106;2023-03-24T01:56:23;8.05;;;3.10;;
46355;SDS011;32066;49.474;11.106;2023-03-24T01:58:56;5.78;;;3.10;;
46355;SDS011;32066;49.474;11.106;2023-03-24T02:01:44;6.20;;;3.33;;
46355;SDS011;32066;49.474;11.106;2023-03-24T02:04:30;9.15;;;3.00;;
46355;SDS011;32066;49.474;11.106;2023-03-24T02:07:07;5.75;;;3.40;;
46355;SDS011;32066;49.474;11.106;2023-03-24T02:12:09;7.05;;;3.20;;
46355;SDS011;32066;49.474;11.106;2023-03-24T02:14:41;6.53;;;3.17;;
46355;SDS011;32066;49.474;11.106;2023-03-24T02:20:31;7.32;;;3.70;;
46355;SDS011;32066;49.474;11.106;2023-03-24T02:23:36;9.30;;;3.75;;
46355;SDS011;32066;49.474;11.106;2023-03-24T02:26:44;6.40;;;3.75;;
46355;SDS011;32066;49.474;11.106;2023-03-24T02:38:30;6.82;;;3.25;;
46355;SDS011;32066;49.474;11.106;2023-03-24T02:41:29;6.55;;;3.35;;
46355;SDS011;32066;49.474;11.106;2023-03-24T02:44:02;5.57;;;3.22;;
46355;SDS011;32066;49.474;11.106;2023-03-24T02:46:39;6.13;;;3.22;;
46355;SDS011;32066;49.474;11.106;2023-03-24T02:49:16;7.85;;;3.47;;
46355;SDS011;32066;49.474;11.106;2023-03-24T02:51:53;6.90;;;3.35;;
46355;SDS011;32066;49.474;11.106;2023-03-24T02:54:28;5.77;;;3.40;;
46355;SDS011;32066;49.474;11.106;2023-03-24T02:57:10;6.75;;;3.40;;
46355;SDS011;32066;49.474;11.106;2023-03-24T03:00:05;5.95;;;3.40;;
46355;SDS011;32066;49.474;11.106;2023-03-24T03:03:01;7.35;;;3.28;;
46355;SDS011;32066;49.474;11.106;2023-03-24T03:05:36;7.15;;;3.63;;
46355;SDS011;32066;49.474;11.106;2023-03-24T03:08:11;6.60;;;3.67;;
46355;SDS011;32066;49.474;11.106;2023-03-24T03:10:45;6.70;;;3.40;;
46355;SDS011;32066;49.474;11.106;2023-03-24T03:13:19;5.72;;;3.42;;
46355;SDS011;32066;49.474;11.106;2023-03-24T03:15:54;9.43;;;3.17;;
46355;SDS011;32066;49.474;11.106;2023-03-24T03:18:26;6.47;;;3.50;;
46355;SDS011;32066;49.474;11.106;2023-03-24T03:21:01;6.22;;;3.60;;
46355;SDS011;32066;49.474;11.106;2023-03-24T03:23:34;6.28;;;3.30;;
46355;SDS011;32066;49.474;11.106;2023-03-24T03:26:06;6.80;;;3.58;;
46355;SDS011;32066;49.474;11.106;2023-03-24T03:28:40;7.55;;;3.40;;
46355;SDS011;32066;49.474;11.106;2023-03-24T03:31:15;7.05;;;3.40;;
46355;SDS011;32066;49.474;11.106;2023-03-24T03:33:49;5.68;;;3.45;;
46355;SDS011;32066;49.474;11.106;2023-03-24T03:36:21;6.00;;;3.25;;
46355;SDS011;32066;49.474;11.106;2023-03-24T03:38:54;6.13;;;3.47;;
46355;SDS011;32066;49.474;11.106;2023-03-24T03:41:29;5.63;;;2.95;;
46355;SDS011;32066;49.474;11.106;2023-03-24T03:44:01;5.80;;;3.25;;
46355;SDS011;32066;49.474;11.106;2023-03-24T03:46:30;6.25;;;3.33;;
46355;SDS011;32066;49.474;11.106;2023-03-24T03:48:59;6.72;;;3.28;;
46355;SDS011;32066;49.474;11.106;2023-03-24T03:51:28;5.85;;;3.10;;
46355;SDS011;32066;49.474;11.106;2023-03-24T03:53:57;7.38;;;3.05;;
46355;SDS011;32066;49.474;11.106;2023-03-24T03:56:30;6.55;;;3.45;;
46355;SDS011;32066;49.474;11.106;2023-03-24T03:59:26;7.18;;;3.92;;
46355;SDS011;32066;49.474;11.106;2023-03-24T04:01:59;5.50;;;3.10;;
46355;SDS011;32066;49.474;11.106;2023-03-24T04:08:03;6.60;;;3.20;;
46355;SDS011;32066;49.474;11.106;2023-03-24T04:11:05;6.32;;;3.40;;
46355;SDS011;32066;49.474;11.106;2023-03-24T04:14:23;6.32;;;3.05;;
46355;SDS011;32066;49.474;11.106;2023-03-24T04:17:27;6.20;;;3.10;;
46355;SDS011;32066;49.474;11.106;2023-03-24T04:20:07;5.85;;;3.25;;
46355;SDS011;32066;49.474;11.106;2023-03-24T04:22:44;5.72;;;3.33;;
46355;SDS011;32066;49.474;11.106;2023-03-24T04:25:27;5.95;;;3.50;;
46355;SDS011;32066;49.474;11.106;2023-03-24T04:28:04;6.50;;;3.30;;
46355;SDS011;32066;49.474;11.106;2023-03-24T04:30:46;5.80;;;3.35;;
46355;SDS011;32066;49.474;11.106;2023-03-24T04:35:54;5.70;;;3.45;;
46355;SDS011;32066;49.474;11.106;2023-03-24T04:38:37;5.75;;;3.50;;
46355;SDS011;32066;49.474;11.106;2023-03-24T04:41:13;5.95;;;3.10;;
46355;SDS011;32066;49.474;11.106;2023-03-24T04:43:51;5.30;;;2.85;;
46355;SDS011;32066;49.474;11.106;2023-03-24T04:46:24;6.00;;;3.30;;
46355;SDS011;32066;49.474;11.106;2023-03-24T04:49:03;6.50;;;3.25;;
46355;SDS011;32066;49.474;11.106;2023-03-24T04:51:34;6.28;;;3.55;;
46355;SDS011;32066;49.474;11.106;2023-03-24T04:54:14;6.93;;;3.67;;
46355;SDS011;32066;49.474;11.106;2023-03-24T04:56:49;7.75;;;3.25;;
46355;SDS011;32066;49.474;11.106;2023-03-24T04:59:27;6.88;;;3.50;;
46355;SDS011;32066;49.474;11.106;2023-03-24T05:02:01;6.20;;;3.53;;
46355;SDS011;32066;49.474;11.106;2023-03-24T05:04:36;5.18;;;3.28;;
46355;SDS011;32066;49.474;11.106;2023-03-24T05:07:30;5.47;;;3.15;;
46355;SDS011;32066;49.474;11.106;2023-03-24T05:10:03;5.40;;;3.28;;
46355;SDS011;32066;49.474;11.106;2023-03-24T05:12:38;5.93;;;3.50;;
46355;SDS011;32066;49.474;11.106;2023-03-24T05:15:33;6.18;;;3.25;;
46355;SDS011;32066;49.474;11.106;2023-03-24T05:18:40;5.05;;;2.97;;
46355;SDS011;32066;49.474;11.106;2023-03-24T05:21:08;5.25;;;3.15;;
46355;SDS011;32066;49.474;11.106;2023-03-24T05:23:37;6.45;;;3.30;;
46355;SDS011;32066;49.474;11.106;2023-03-24T05:26:07;6.75;;;3.03;;
46355;SDS011;32066;49.474;11.106;2023-03-24T05:28:49;6.40;;;3.35;;
46355;SDS011;32066;49.474;11.106;2023-03-24T05:31:18;7.25;;;3.13;;
46355;SDS011;32066;49.474;11.106;2023-03-24T05:33:54;6.22;;;3.38;;
46355;SDS011;32066;49.474;11.106;2023-03-24T05:36:24;9.88;;;3.65;;
46355;SDS011;32066;49.474;11.106;2023-03-24T05:38:55;5.47;;;3.35;;
46355;SDS011;32066;49.474;11.106;2023-03-24T05:41:33;7.70;;;3.20;;
46355;SDS011;32066;49.474;11.106;2023-03-24T05:44:02;5.25;;;3.08;;
46355;SDS011;32066;49.474;11.106;2023-03-24T05:46:30;6.53;;;3.33;;
46355;SDS011;32066;49.474;11.106;2023-03-24T05:49:04;5.25;;;3.05;;
46355;SDS011;32066;49.474;11.106;2023-03-24T05:51:38;6.93;;;3.38;;
46355;SDS011;32066;49.474;11.106;2023-03-24T05:54:07;5.75;;;3.33;;
46355;SDS011;32066;49.474;11.106;2023-03-24T05:56:40;6.00;;;2.78;;
46355;SDS011;32066;49.474;11.106;2023-03-24T05:59:31;7.15;;;3.20;;
46355;SDS011;32066;49.474;11.106;2023-03-24T06:02:09;5.70;;;3.30;;
46355;SDS011;32066;49.474;11.106;2023-03-24T06:04:53;5.43;;;3.03;;
46355;SDS011;32066;49.474;11.106;2023-03-24T06:07:24;5.70;;;2.95;;
46355;SDS011;32066;49.474;11.106;2023-03-24T06:09:55;6.07;;;3.13;;
46355;SDS011;32066;49.474;11.106;2023-03-24T06:12:30;5.90;;;3.20;;
46355;SDS011;32066;49.474;11.106;2023-03-24T06:15:01;5.15;;;3.20;;
46355;SDS011;32066;49.474;11.106;2023-03-24T06:17:31;6.22;;;2.92;;
46355;SDS011;32066;49.474;11.106;2023-03-24T06:20:11;6.15;;;3.58;;
46355;SDS011;32066;49.474;11.106;2023-03-24T06:22:53;5.85;;;3.00;;
46355;SDS011;32066;49.474;11.106;2023-03-24T06:25:26;7.45;;;3.00;;
46355;SDS011;32066;49.474;11.106;2023-03-24T06:28:10;5.68;;;3.05;;
46355;SDS011;32066;49.474;11.106;2023-03-24T06:30:41;6.35;;;3.58;;
46355;SDS011;32066;49.474;11.106;2023-03-24T06:33:15;5.53;;;3.28;;
46355;SDS011;32066;49.474;11.106;2023-03-24T06:35:48;6.40;;;3.35;;
46355;SDS011;32066;49.474;11.106;2023-03-24T06:38:18;5.15;;;3.22;;
46355;SDS011;32066;49.474;11.106;2023-03-24T06:40:47;5.90;;;3.35;;
46355;SDS011;32066;49.474;11.106;2023-03-24T06:43:16;4.75;;;2.90;;
46355;SDS011;32066;49.474;11.106;2023-03-24T06:45:44;8.82;;;3.72;;
46355;SDS011;32066;49.474;11.106;2023-03-24T06:48:17;6.53;;;3.20;;
46355;SDS011;32066;49.474;11.106;2023-03-24T06:50:50;6.75;;;3.40;;
46355;SDS011;32066;49.474;11.106;2023-03-24T06:53:19;5.85;;;3.30;;
46355;SDS011;32066;49.474;11.106;2023-03-24T06:55:48;9.10;;;3.88;;
46355;SDS011;32066;49.474;11.106;2023-03-24T06:58:20;6.13;;;3.72;;
46355;SDS011;32066;49.474;11.106;2023-03-24T07:01:06;7.05;;;3.30;;
46355;SDS011;32066;49.474;11.106;2023-03-24T07:03:41;6.35;;;3.08;;
46355;SDS011;32066;49.474;11.106;2023-03-24T07:06:31;5.70;;;3.28;;
46355;SDS011;32066;49.474;11.106;2023-03-24T07:09:08;6.68;;;3.40;;
46355;SDS011;32066;49.474;11.106;2023-03-24T07:11:38;6.07;;;3.83;;
46355;SDS011;32066;49.474;11.106;2023-03-24T07:14:07;9.40;;;3.72;;
46355;SDS011;32066;49.474;11.106;2023-03-24T07:16:35;7.15;;;3.80;;
46355;SDS011;32066;49.474;11.106;2023-03-24T07:19:27;7.38;;;3.90;;
46355;SDS011;32066;49.474;11.106;2023-03-24T07:22:16;7.05;;;3.45;;
46355;SDS011;32066;49.474;11.106;2023-03-24T07:25:04;7.63;;;4.30;;
46355;SDS011;32066;49.474;11.106;2023-03-24T07:27:43;6.60;;;3.70;;
46355;SDS011;32066;49.474;11.106;2023-03-24T07:30:13;8.07;;;3.80;;
46355;SDS011;32066;49.474;11.106;2023-03-24T07:32:43;6.63;;;3.22;;
46355;SDS011;32066;49.474;11.106;2023-03-24T07:35:14;5.93;;;3.58;;
46355;SDS011;32066;49.474;11.106;2023-03-24T07:37:48;6.68;;;3.20;;
46355;SDS011;32066;49.474;11.106;2023-03-24T07:40:17;5.93;;;2.90;;
46355;SDS011;32066;49.474;11.106;2023-03-24T07:42:46;4.82;;;2.83;;
46355;SDS011;32066;49.474;11.106;2023-03-24T07:45:38;7.38;;;2.80;;
46355;SDS011;32066;49.474;11.106;2023-03-24T07:48:07;4.95;;;2.53;;
46355;SDS011;32066;49.474;11.106;2023-03-24T07:50:36;5.03;;;2.50;;
46355;SDS011;32066;49.474;11.106;2023-03-24T07:53:23;4.82;;;2.50;;
46355;SDS011;32066;49.474;11.106;2023-03-24T07:55:52;9.88;;;2.50;;
46355;SDS011;32066;49.474;11.106;2023-03-24T07:58:22;8.73;;;2.58;;
46355;SDS011;32066;49.474;11.106;2023-03-24T08:01:05;5.07;;;2.10;;
46355;SDS011;32066;49.474;11.106;2023-03-24T08:03:38;4.70;;;2.22;;
46355;SDS011;32066;49.474;11.106;2023-03-24T08:06:13;4.53;;;2.20;;
46355;SDS011;32066;49.474;11.106;2023-03-24T08:08:50;6.00;;;2.00;;
46355;SDS011;32066;49.474;11.106;2023-03-24T08:11:19;5.63;;;1.95;;
46355;SDS011;32066;49.474;11.106;2023-03-24T08:13:47;3.88;;;1.80;;
46355;SDS011;32066;49.474;11.106;2023-03-24T08:16:16;3.80;;;1.73;;
46355;SDS011;32066;49.474;11.106;2023-03-24T08:18:45;5.38;;;1.90;;
46355;SDS011;32066;49.474;11.106;2023-03-24T08:21:14;5.38;;;1.80;;
46355;SDS011;32066;49.474;11.106;2023-03-24T08:23:43;4.43;;;2.03;;
46355;SDS011;32066;49.474;11.106;2023-03-24T08:26:15;5.18;;;2.00;;
46355;SDS011;32066;49.474;11.106;2023-03-24T08:28:44;5.78;;;2.00;;
46355;SDS011;32066;49.474;11.106;2023-03-24T08:31:13;7.05;;;1.52;;
46355;SDS011;32066;49.474;11.106;2023-03-24T08:33:42;4.18;;;1.58;;
46355;SDS011;32066;49.474;11.106;2023-03-24T08:36:11;3.90;;;1.63;;
46355;SDS011;32066;49.474;11.106;2023-03-24T08:38:39;4.45;;;1.90;;
46355;SDS011;32066;49.474;11.106;2023-03-24T08:41:08;4.82;;;1.92;;
46355;SDS011;32066;49.474;11.106;2023-03-24T08:43:39;4.13;;;1.65;;
46355;SDS011;32066;49.474;11.106;2023-03-24T08:46:08;4.53;;;2.20;;
46355;SDS011;32066;49.474;11.106;2023-03-24T08:48:37;6.65;;;1.90;;
46355;SDS011;32066;49.474;11.106;2023-03-24T08:51:09;4.28;;;2.00;;
46355;SDS011;32066;49.474;11.106;2023-03-24T08:53:39;6.70;;;1.80;;
46355;SDS011;32066;49.474;11.106;2023-03-24T08:56:08;3.40;;;1.73;;
46355;SDS011;32066;49.474;11.106;2023-03-24T08:58:40;5.95;;;2.22;;
46355;SDS011;32066;49.474;11.106;2023-03-24T09:01:08;5.43;;;2.35;;
46355;SDS011;32066;49.474;11.106;2023-03-24T09:03:37;5.55;;;2.15;;
46355;SDS011;32066;49.474;11.106;2023-03-24T09:06:07;4.35;;;2.05;;
46355;SDS011;32066;49.474;11.106;2023-03-24T09:08:36;5.63;;;2.15;;
46355;SDS011;32066;49.474;11.106;2023-03-24T09:11:05;5.40;;;2.20;;
46355;SDS011;32066;49.474;11.106;2023-03-24T09:13:34;6.38;;;2.47;;
46355;SDS011;32066;49.474;11.106;2023-03-24T09:16:06;6.28;;;2.55;;
46355;SDS011;32066;49.474;11.106;2023-03-24T09:18:34;5.78;;;2.70;;
46355;SDS011;32066;49.474;11.106;2023-03-24T09:21:03;9.23;;;2.75;;
46355;SDS011;32066;49.474;11.106;2023-03-24T09:23:33;5.68;;;2.60;;
46355;SDS011;32066;49.474;11.106;2023-03-24T09:26:02;6.95;;;2.70;;
46355;SDS011;32066;49.474;11.106;2023-03-24T09:28:32;6.43;;;2.88;;
46355;SDS011;32066;49.474;11.106;2023-03-24T09:31:02;5.40;;;2.60;;
46355;SDS011;32066;49.474;11.106;2023-03-24T09:33:34;8.05;;;3.13;;
46355;SDS011;32066;49.474;11.106;2023-03-24T09:36:03;5.15;;;2.60;;
46355;SDS011;32066;49.474;11.106;2023-03-24T09:38:32;5.70;;;2.70;;
46355;SDS011;32066;49.474;11.106;2023-03-24T09:41:02;6.03;;;3.00;;
46355;SDS011;32066;49.474;11.106;2023-03-24T09:43:33;5.05;;;2.60;;
46355;SDS011;32066;49.474;11.106;2023-03-24T09:46:09;5.45;;;2.88;;
46355;SDS011;32066;49.474;11.106;2023-03-24T09:48:41;5.93;;;2.60;;
46355;SDS011;32066;49.474;11.106;2023-03-24T09:51:14;8.35;;;3.08;;
46355;SDS011;32066;49.474;11.106;2023-03-24T09:53:50;6.07;;;3.00;;
46355;SDS011;32066;49.474;11.106;2023-03-24T09:56:24;6.77;;;3.10;;
46355;SDS011;32066;49.474;11.106;2023-03-24T09:58:58;8.60;;;3.10;;
46355;SDS011;32066;49.474;11.106;2023-03-24T10:01:34;5.82;;;3.30;;
46355;SDS011;32066;49.474;11.106;2023-03-24T10:04:03;6.22;;;2.70;;
46355;SDS011;32066;49.474;11.106;2023-03-24T10:06:41;5.35;;;3.00;;
46355;SDS011;32066;49.474;11.106;2023-03-24T10:14:55;4.38;;;2.78;;
46355;SDS011;32066;49.474;11.106;2023-03-24T10:17:37;6.05;;;3.20;;
46355;SDS011;32066;49.474;11.106;2023-03-24T10:20:14;7.18;;;3.40;;
46355;SDS011;32066;49.474;11.106;2023-03-24T10:22:54;5.80;;;2.97;;
46355;SDS011;32066;49.474;11.106;2023-03-24T10:25:32;5.50;;;2.85;;
46355;SDS011;32066;49.474;11.106;2023-03-24T10:28:10;9.18;;;3.00;;
46355;SDS011;32066;49.474;11.106;2023-03-24T10:30:46;5.07;;;2.80;;
46355;SDS011;32066;49.474;11.106;2023-03-24T10:33:19;4.97;;;2.90;;
46355;SDS011;32066;49.474;11.106;2023-03-24T10:35:50;5.00;;;2.97;;
46355;SDS011;32066;49.474;11.106;2023-03-24T10:38:26;5.95;;;2.63;;
46355;SDS011;32066;49.474;11.106;2023-03-24T10:40:55;5.13;;;2.50;;
46355;SDS011;32066;49.474;11.106;2023-03-24T10:43:24;5.20;;;2.72;;
46355;SDS011;32066;49.474;11.106;2023-03-24T10:45:55;4.68;;;2.50;;
46355;SDS011;32066;49.474;11.106;2023-03-24T10:48:44;4.70;;;2.42;;
46355;SDS011;32066;49.474;11.106;2023-03-24T10:51:14;4.88;;;2.53;;
46355;SDS011;32066;49.474;11.106;2023-03-24T10:53:45;4.25;;;2.28;;
46355;SDS011;32066;49.474;11.106;2023-03-24T10:56:15;5.78;;;2.80;;
46355;SDS011;32066;49.474;11.106;2023-03-24T10:58:45;4.57;;;2.58;;
46355;SDS011;32066;49.474;11.106;2023-03-24T11:04:07;5.28;;;2.50;;
46355;SDS011;32066;49.474;11.106;2023-03-24T11:06:51;5.68;;;2.33;;
46355;SDS011;32066;49.474;11.106;2023-03-24T11:09:25;4.25;;;2.08;;
46355;SDS011;32066;49.474;11.106;2023-03-24T11:11:54;4.88;;;2.45;;
46355;SDS011;32066;49.474;11.106;2023-03-24T11:14:24;3.88;;;2.10;;
46355;SDS011;32066;49.474;11.106;2023-03-24T11:17:01;6.05;;;2.20;;
46355;SDS011;32066;49.474;11.106;2023-03-24T11:19:51;7.40;;;2.55;;
46355;SDS011;32066;49.474;11.106;2023-03-24T11:22:21;6.35;;;2.75;;
46355;SDS011;32066;49.474;11.106;2023-03-24T11:24:53;5.20;;;2.50;;
46355;SDS011;32066;49.474;11.106;2023-03-24T11:27:23;5.28;;;2.45;;
46355;SDS011;32066;49.474;11.106;2023-03-24T11:29:52;5.78;;;2.60;;
46355;SDS011;32066;49.474;11.106;2023-03-24T11:32:22;5.10;;;2.42;;
46355;SDS011;32066;49.474;11.106;2023-03-24T11:35:00;4.70;;;2.38;;
46355;SDS011;32066;49.474;11.106;2023-03-24T11:37:33;6.38;;;2.63;;
46355;SDS011;32066;49.474;11.106;2023-03-24T11:40:21;4.55;;;2.50;;
46355;SDS011;32066;49.474;11.106;2023-03-24T11:42:52;5.32;;;2.63;;
46355;SDS011;32066;49.474;11.106;2023-03-24T11:45:25;4.63;;;2.45;;
46355;SDS011;32066;49.474;11.106;2023-03-24T11:47:57;4.85;;;2.60;;
46355;SDS011;32066;49.474;11.106;2023-03-24T11:50:29;4.60;;;2.17;;
46355;SDS011;32066;49.474;11.106;2023-03-24T11:53:01;4.03;;;2.33;;
46355;SDS011;32066;49.474;11.106;2023-03-24T11:55:36;5.05;;;2.50;;
46355;SDS011;32066;49.474;11.106;2023-03-24T11:58:14;4.95;;;2.50;;
46355;SDS011;32066;49.474;11.106;2023-03-24T12:00:50;4.97;;;2.60;;
46355;SDS011;32066;49.474;11.106;2023-03-24T12:03:28;5.70;;;2.25;;
46355;SDS011;32066;49.474;11.106;2023-03-24T12:06:14;5.40;;;3.00;;
46355;SDS011;32066;49.474;11.106;2023-03-24T12:08:57;4.22;;;2.22;;
46355;SDS011;32066;49.474;11.106;2023-03-24T12:11:38;4.82;;;2.70;;
46355;SDS011;32066;49.474;11.106;2023-03-24T12:14:22;6.72;;;3.17;;
46355;SDS011;32066;49.474;11.106;2023-03-24T12:17:01;5.07;;;2.70;;
46355;SDS011;32066;49.474;11.106;2023-03-24T12:19:46;4.68;;;2.63;;
46355;SDS011;32066;49.474;11.106;2023-03-24T12:22:32;4.15;;;2.35;;
46355;SDS011;32066;49.474;11.106;2023-03-24T12:25:18;5.55;;;2.60;;
46355;SDS011;32066;49.474;11.106;2023-03-24T12:28:10;8.95;;;4.07;;
46355;SDS011;32066;49.474;11.106;2023-03-24T12:30:49;6.63;;;2.90;;
46355;SDS011;32066;49.474;11.106;2023-03-24T12:33:30;6.45;;;2.95;;
46355;SDS011;32066;49.474;11.106;2023-03-24T12:36:11;4.28;;;2.33;;
46355;SDS011;32066;49.474;11.106;2023-03-24T12:38:54;5.47;;;2.95;;
46355;SDS011;32066;49.474;11.106;2023-03-24T12:41:43;5.75;;;2.80;;
46355;SDS011;32066;49.474;11.106;2023-03-24T12:44:39;5.75;;;2.60;;
46355;SDS011;32066;49.474;11.106;2023-03-24T12:50:24;6.50;;;2.75;;
46355;SDS011;32066;49.474;11.106;2023-03-24T12:53:14;4.78;;;2.45;;
46355;SDS011;32066;49.474;11.106;2023-03-24T12:55:54;8.98;;;3.30;;
46355;SDS011;32066;49.474;11.106;2023-03-24T12:58:27;3.72;;;2.17;;
46355;SDS011;32066;49.474;11.106;2023-03-24T13:01:04;5.40;;;2.50;;
46355;SDS011;32066;49.474;11.106;2023-03-24T13:03:38;5.65;;;2.53;;
46355;SDS011;32066;49.474;11.106;2023-03-24T13:06:12;6.18;;;2.58;;
46355;SDS011;32066;49.474;11.106;2023-03-24T13:08:48;5.97;;;2.40;;
46355;SDS011;32066;49.474;11.106;2023-03-24T13:11:34;5.70;;;2.00;;
46355;SDS011;32066;49.474;11.106;2023-03-24T13:14:10;4.63;;;2.00;;
46355;SDS011;32066;49.474;11.106;2023-03-24T13:16:42;4.88;;;1.58;;
46355;SDS011;32066;49.474;11.106;2023-03-24T13:19:15;5.78;;;1.50;;
46355;SDS011;32066;49.474;11.106;2023-03-24T13:21:48;3.42;;;1.50;;
46355;SDS011;32066;49.474;11.106;2023-03-24T13:24:19;3.00;;;1.20;;
46355;SDS011;32066;49.474;11.106;2023-03-24T13:26:55;5.03;;;1.60;;
46355;SDS011;32066;49.474;11.106;2023-03-24T13:32:43;5.45;;;2.20;;
46355;SDS011;32066;49.474;11.106;2023-03-24T13:35:18;5.22;;;1.88;;
46355;SDS011;32066;49.474;11.106;2023-03-24T13:37:55;5.53;;;1.73;;
46355;SDS011;32066;49.474;11.106;2023-03-24T13:40:29;4.67;;;1.87;;
46355;SDS011;32066;49.474;11.106;2023-03-24T13:43:05;4.35;;;2.08;;
46355;SDS011;32066;49.474;11.106;2023-03-24T13:45:39;5.22;;;1.77;;
46355;SDS011;32066;49.474;11.106;2023-03-24T13:48:16;5.13;;;1.75;;
46355;SDS011;32066;49.474;11.106;2023-03-24T13:50:52;4.68;;;1.70;;
46355;SDS011;32066;49.474;11.106;2023-03-24T13:53:31;4.80;;;1.70;;
46355;SDS011;32066;49.474;11.106;2023-03-24T13:56:03;5.25;;;1.80;;
46355;SDS011;32066;49.474;11.106;2023-03-24T13:58:49;5.47;;;1.90;;
46355;SDS011;32066;49.474;11.106;2023-03-24T14:01:34;5.47;;;1.70;;
46355;SDS011;32066;49.474;11.106;2023-03-24T14:04:19;4.45;;;1.83;;
46355;SDS011;32066;49.474;11.106;2023-03-24T14:06:50;4.38;;;1.77;;
46355;SDS011;32066;49.474;11.106;2023-03-24T14:09:20;6.10;;;1.88;;
46355;SDS011;32066;49.474;11.106;2023-03-24T14:15:08;5.60;;;2.03;;
46355;SDS011;32066;49.474;11.106;2023-03-24T14:17:44;4.00;;;2.00;;
46355;SDS011;32066;49.474;11.106;2023-03-24T14:20:25;10.27;;;2.97;;
46355;SDS011;32066;49.474;11.106;2023-03-24T14:22:59;3.63;;;1.90;;
46355;SDS011;32066;49.474;11.106;2023-03-24T14:25:29;3.83;;;1.75;;
46355;SDS011;32066;49.474;11.106;2023-03-24T14:28:09;3.70;;;1.80;;
46355;SDS011;32066;49.474;11.106;2023-03-24T14:34:00;3.58;;;1.70;;
46355;SDS011;32066;49.474;11.106;2023-03-24T14:36:35;5.40;;;1.10;;
46355;SDS011;32066;49.474;11.106;2023-03-24T14:39:08;2.90;;;1.15;;
46355;SDS011;32066;49.474;11.106;2023-03-24T14:41:39;3.22;;;1.23;;
46355;SDS011;32066;49.474;11.106;2023-03-24T14:44:08;3.25;;;1.20;;
46355;SDS011;32066;49.474;11.106;2023-03-24T14:46:41;3.88;;;1.20;;
46355;SDS011;32066;49.474;11.106;2023-03-24T14:49:16;3.25;;;1.10;;
46355;SDS011;32066;49.474;11.106;2023-03-24T14:51:51;3.50;;;1.35;;
46355;SDS011;32066;49.474;11.106;2023-03-24T14:54:27;3.65;;;1.33;;
46355;SDS011;32066;49.474;11.106;2023-03-24T14:57:01;3.35;;;1.20;;
46355;SDS011;32066;49.474;11.106;2023-03-24T14:59:38;5.60;;;1.83;;
46355;SDS011;32066;49.474;11.106;2023-03-24T15:02:20;3.38;;;1.30;;
46355;SDS011;32066;49.474;11.106;2023-03-24T15:07:57;5.22;;;1.90;;
46355;SDS011;32066;49.474;11.106;2023-03-24T15:10:32;3.70;;;1.17;;
46355;SDS011;32066;49.474;11.106;2023-03-24T15:13:17;5.10;;;1.95;;
46355;SDS011;32066;49.474;11.106;2023-03-24T15:15:56;4.20;;;1.40;;
46355;SDS011;32066;49.474;11.106;2023-03-24T15:18:28;2.92;;;1.10;;
46355;SDS011;32066;49.474;11.106;2023-03-24T15:20:57;4.32;;;1.30;;
46355;SDS011;32066;49.474;11.106;2023-03-24T15:23:26;4.88;;;1.58;;
46355;SDS011;32066;49.474;11.106;2023-03-24T15:25:55;4.28;;;1.20;;
46355;SDS011;32066;49.474;11.106;2023-03-24T15:28:24;4.35;;;1.15;;
46355;SDS011;32066;49.474;11.106;2023-03-24T15:30:55;3.15;;;1.13;;
46355;SDS011;32066;49.474;11.106;2023-03-24T15:33:30;6.75;;;1.77;;
46355;SDS011;32066;49.474;11.106;2023-03-24T15:36:12;4.32;;;1.08;;
46355;SDS011;32066;49.474;11.106;2023-03-24T15:38:47;3.28;;;1.20;;
46355;SDS011;32066;49.474;11.106;2023-03-24T15:41:17;7.20;;;1.20;;
46355;SDS011;32066;49.474;11.106;2023-03-24T15:43:49;4.53;;;1.50;;
46355;SDS011;32066;49.474;11.106;2023-03-24T15:46:19;5.18;;;1.35;;
46355;SDS011;32066;49.474;11.106;2023-03-24T15:48:55;6.30;;;1.25;;
46355;SDS011;32066;49.474;11.106;2023-03-24T15:54:17;5.32;;;1.45;;
46355;SDS011;32066;49.474;11.106;2023-03-24T15:56:59;5.72;;;1.35;;
46355;SDS011;32066;49.474;11.106;2023-03-24T15:59:32;6.72;;;1.63;;
46355;SDS011;32066;49.474;11.106;2023-03-24T16:02:03;3.58;;;1.30;;
46355;SDS011;32066;49.474;11.106;2023-03-24T16:04:41;3.75;;;1.30;;
46355;SDS011;32066;49.474;11.106;2023-03-24T16:07:18;6.72;;;1.40;;